Sunday, July 22, 2018, 12:27 AM EDT
Back to Local

KPNE, N.e. Philadelphia Airport

Location: Philadelphia, PA, United States Lat: 40.083
Local Time: 12:27 AM EDT ( 4:27 GMT) Lon: -75.017
Time Zone: US/Eastern Elev: 121 ft

Show me the last for .
Show Decoded

2018-07-22 00:14 METAR KPNE 220414Z AUTO 08020G28KT 5SM RA BR SCT010 OVC017 23/21 A2973 RMK AO2
                 PK WND 08028/0408 P0007 T02330211 =
2018-07-22 00:02 METAR KPNE 220402Z AUTO 08015G22KT 3SM RA BR BKN008 OVC014 23/21 A2974 RMK AO2
                 PRESFR P0005 T02330211 =
2018-07-21 23:54 METAR KPNE 220354Z AUTO 07013KT 2SM +RA BR FEW006 BKN012 OVC020 23/21 A2975 RMK
                 AO2 RAB01 SLP074 P0022 T02280211 =
2018-07-21 23:33 METAR KPNE 220333Z AUTO 06012KT 5SM RA BR SCT008 OVC014 22/21 A2977 RMK AO2
                 RAB01 P0010 T02220206 =
2018-07-21 22:54 METAR KPNE 220254Z AUTO 05016KT 10SM BKN005 OVC010 21/19 A2980 RMK AO2 RAE39 CIG
                 003V007 SLP091 P0001 60022 T02110194 56022 =
2018-07-21 22:51 METAR KPNE 220251Z 06012KT 10SM OVC005 21/19 A2980 RMK AO2 RAE39 CIG 003V009
                 P0001 =
2018-07-21 22:39 METAR KPNE 220239Z 05015KT 10SM BKN004 OVC010 21/19 A2981 RMK AO2 RAE39 CIG
                 003V008 P0001 T02110189 =
2018-07-21 21:54 METAR KPNE 220154Z 06014KT 7SM -RA OVC006 21/19 A2985 RMK AO2 SLP105 P0015
                 T02110189 =
2018-07-21 21:34 METAR KPNE 220134Z 06013KT 5SM -RA BR OVC006 21/19 A2986 RMK AO2 P0014 T02060189
                 =
2018-07-21 21:18 METAR KPNE 220118Z 06014KT 2 1/2SM +RA BR OVC006 21/19 A2986 RMK AO2 CIG 005V009
                 P0008 T02060189 =
2018-07-21 20:54 METAR KPNE 220054Z 06013G22KT 6SM -RA BR OVC007 21/18 A2987 RMK AO2 CIG 005V011
                 SLP113 P0006 T02060183 =
2018-07-21 20:12 METAR KPNE 220012Z 05013KT 3SM -RA BR OVC008 20/18 A2988 RMK AO2 CIG 006V010
                 P0003 T02000183 =
2018-07-21 20:05 METAR KPNE 220005Z 06014KT 1 3/4SM RA BR BKN008 OVC013 20/18 A2988 RMK AO2 CIG
                 006V010 P0002 T02000178 =
2018-07-21 19:54 METAR KPNE 212354Z 06012KT 2SM RA BR OVC010 20/18 A2990 RMK AO2 RAB2256 CIG
                 007V015 SLP123 P0004 60016 T02000178 10244 20200 58017 =
2018-07-21 19:36 METAR KPNE 212336Z 06015KT 2 1/2SM -RA BR OVC010 20/18 A2990 RMK AO2 RAB2256
                 P0001 T02000178 =
2018-07-21 19:02 METAR KPNE 212302Z 05012KT 4SM -RA BR BKN012 OVC025 20/18 A2992 RMK AO2 RAB2256
                 P0000 T02000178 =
2018-07-21 18:54 METAR KPNE 212254Z 05015KT 9SM SCT012 BKN018 OVC038 20/18 A2992 RMK AO2 RAE51
                 SLP130 P0002 T02000178 =
2018-07-21 18:38 METAR KPNE 212238Z 05013KT 7SM -RA FEW009 BKN029 OVC040 20/18 A2992 RMK AO2
                 P0002 T02000178 =
2018-07-21 18:15 METAR KPNE 212215Z 06015KT 5SM -RA BR SCT011 BKN035 OVC044 20/18 A2993 RMK AO2
                 P0001 T02000178 =
2018-07-21 18:11 METAR KPNE 212211Z 05015KT 4SM -RA BR SCT009 BKN014 OVC045 20/18 A2993 RMK AO2
                 P0001 T02000178 =
2018-07-21 17:54 METAR KPNE 212154Z 06016G21KT 5SM -RA SCT013 BKN036 OVC045 21/18 A2994 RMK AO2
                 SLP140 P0007 T02060178 =
2018-07-21 17:38 METAR KPNE 212138Z 07012KT 4SM -RA BR BKN015 BKN047 OVC110 21/18 A2995 RMK AO2
                 P0005 T02060183 =
2018-07-21 17:09 METAR KPNE 212109Z 07012KT 5SM -RA SCT024 BKN041 OVC050 21/18 A2996 RMK AO2
                 P0002 T02110183 =
2018-07-21 16:54 METAR KPNE 212054Z 07013KT 5SM -RA BKN025 BKN032 OVC050 21/18 A2996 RMK AO2
                 RAE14B23 SLP146 P0003 60003 T02110178 56016 =
2018-07-21 16:16 METAR KPNE 212016Z 07013KT 10SM BKN027 OVC050 22/18 A2997 RMK AO2 RAE14 P0000
                 T02220178 =
2018-07-21 15:54 METAR KPNE 211954Z 08017G24KT 9SM -RA FEW031 OVC050 22/17 A2997 RMK AO2 PK WND
                 07026/1918 RAB1855E06B31 SLP149 P0000 T02220172 =
2018-07-21 14:54 METAR KPNE 211854Z 08016KT 10SM BKN030 OVC055 24/16 A2999 RMK AO2 SLP156
                 T02390161 =
2018-07-21 13:54 METAR KPNE 211754Z 09019KT 10SM BKN034 OVC050 25/16 A3001 RMK AO2 SLP161
                 T02500161 10261 20222 56017 =
2018-07-21 12:54 METAR KPNE 211654Z 09014KT 10SM BKN035 BKN075 26/17 A3002 RMK AO2 SLP165
                 T02560167 =
2018-07-21 11:54 METAR KPNE 211554Z 10012KT 10SM FEW032 SCT050 BKN085 25/17 A3004 RMK AO2 SLP172
                 T02500167 =
2018-07-21 10:54 METAR KPNE 211454Z 10009KT 10SM CLR 25/16 A3006 RMK AO2 SLP178 T02500161 57002 =
2018-07-21 09:54 METAR KPNE 211354Z 11012G17KT 10SM BKN100 25/16 A3006 RMK AO2 SLP179 T02500156 =
2018-07-21 08:54 METAR KPNE 211254Z 09011KT 10SM FEW100 24/16 A3006 RMK AO2 SLP178 T02390156 =
2018-07-21 07:54 METAR KPNE 211154Z 10009KT 10SM CLR 23/16 A3007 RMK AO2 SLP179 T02280156 10228
                 20178 55003 =
2018-07-21 06:54 METAR KPNE 211054Z 08007KT 10SM CLR 21/16 A3006 RMK AO2 SLP178 T02060156 =
2018-07-21 05:54 METAR KPNE 210954Z 05006KT 10SM CLR 18/15 A3007 RMK AO2 SLP180 T01780150 =
2018-07-21 04:54 METAR KPNE 210854Z AUTO 06005KT 10SM CLR 18/15 A3007 RMK AO2 SLP182 T01780150
                 58008 =
2018-07-21 03:54 METAR KPNE 210754Z AUTO 06004KT 10SM BKN037 18/15 A3008 RMK AO2 SLP186 T01830150
                 =
2018-07-21 02:54 METAR KPNE 210654Z AUTO 10003KT 10SM CLR 19/15 A3009 RMK AO2 SLP187 T01940150 =
2018-07-21 01:54 METAR KPNE 210554Z AUTO 11003KT 10SM CLR 20/16 A3010 RMK AO2 SLP190 T02000156
                 10256 20194 56010 =
2018-07-21 00:54 METAR KPNE 210454Z AUTO 12003KT 10SM CLR 21/16 A3011 RMK AO2 SLP194 T02060156
                 403060178 =

Support USWX by starting your Amazon purchase here.